createdAt,value
2022-12-16T00:01:54.962Z,-6.79
2022-12-16T00:04:23.418Z,-6.75
2022-12-16T00:06:51.776Z,-6.77
2022-12-16T00:09:20.497Z,-6.69
2022-12-16T00:11:50.391Z,-6.72
2022-12-16T00:14:19.917Z,-6.74
2022-12-16T00:16:48.213Z,-6.73
2022-12-16T00:19:16.665Z,-6.77
2022-12-16T00:21:44.932Z,-6.75
2022-12-16T00:24:13.366Z,-6.73
2022-12-16T00:26:41.556Z,-6.74
2022-12-16T00:29:11.603Z,-6.72
2022-12-16T00:31:40.005Z,-6.74
2022-12-16T00:34:08.710Z,-6.76
2022-12-16T00:36:36.994Z,-6.78
2022-12-16T00:39:05.426Z,-6.84
2022-12-16T00:41:33.719Z,-6.92
2022-12-16T00:44:02.109Z,-6.93
2022-12-16T00:46:32.014Z,-6.92
2022-12-16T00:49:00.523Z,-6.90
2022-12-16T00:51:28.878Z,-6.86
2022-12-16T00:53:57.225Z,-7.01
2022-12-16T00:56:25.464Z,-6.68
2022-12-16T00:58:53.652Z,-6.54
2022-12-16T01:01:23.428Z,-6.48
2022-12-16T01:03:53.331Z,-6.53
2022-12-16T01:06:23.576Z,-6.43
2022-12-16T01:08:51.982Z,-6.49
2022-12-16T01:11:21.781Z,-6.61
2022-12-16T01:13:52.737Z,-6.63
2022-12-16T01:16:24.105Z,-6.46
2022-12-16T01:18:55.487Z,-6.73
2022-12-16T01:21:24.128Z,-6.86
2022-12-16T01:23:52.426Z,-6.76
2022-12-16T01:26:23.813Z,-6.76
2022-12-16T01:28:52.219Z,-6.78
2022-12-16T01:31:21.976Z,-6.86
2022-12-16T01:33:51.255Z,-6.83
2022-12-16T01:36:21.396Z,-6.82
2022-12-16T01:38:50.803Z,-6.86
2022-12-16T01:41:20.520Z,-6.83
2022-12-16T01:43:49.153Z,-6.83
2022-12-16T01:46:23.350Z,-6.89
2022-12-16T01:48:56.550Z,-6.93
2022-12-16T01:51:31.920Z,-6.97
2022-12-16T01:54:05.601Z,-7.03
2022-12-16T01:56:36.159Z,-7.05
2022-12-16T01:59:04.808Z,-6.91
2022-12-16T02:01:33.310Z,-6.94
2022-12-16T02:04:04.489Z,-6.94
2022-12-16T02:06:34.720Z,-6.94
2022-12-16T02:09:09.149Z,-6.91
2022-12-16T02:11:56.128Z,-6.94
2022-12-16T02:14:58.370Z,-6.80
2022-12-16T02:17:33.470Z,-7.09
2022-12-16T02:20:46.424Z,-7.23
2022-12-16T02:23:42.495Z,-7.09
2022-12-16T02:26:44.800Z,-7.04
2022-12-16T02:29:38.276Z,-6.91
2022-12-16T02:32:16.169Z,-6.76
2022-12-16T02:34:50.705Z,-6.84
2022-12-16T02:37:32.563Z,-6.74
2022-12-16T02:40:02.943Z,-6.57
2022-12-16T02:42:33.538Z,-6.77
2022-12-16T02:45:05.794Z,-6.79
2022-12-16T02:47:35.779Z,-6.72
2022-12-16T02:50:04.092Z,-6.63
2022-12-16T02:52:36.384Z,-6.93
2022-12-16T02:55:10.398Z,-6.88
2022-12-16T02:57:56.412Z,-6.94
2022-12-16T03:00:25.917Z,-6.96
2022-12-16T03:03:02.679Z,-6.89
2022-12-16T03:05:34.579Z,-6.90
2022-12-16T03:08:07.567Z,-7.01
2022-12-16T03:10:40.916Z,-7.04
2022-12-16T03:13:12.482Z,-7.05
2022-12-16T03:15:42.682Z,-6.98
2022-12-16T03:18:16.964Z,-7.01
2022-12-16T03:20:51.021Z,-7.03
2022-12-16T03:23:24.154Z,-6.91
2022-12-16T03:25:57.445Z,-6.93
2022-12-16T03:28:38.350Z,-6.96
2022-12-16T03:31:14.911Z,-7.07
2022-12-16T03:33:51.409Z,-7.06
2022-12-16T03:36:24.067Z,-7.03
2022-12-16T03:38:53.207Z,-7.08
2022-12-16T03:41:24.556Z,-7.09
2022-12-16T03:43:53.814Z,-7.09
2022-12-16T03:46:22.672Z,-7.10
2022-12-16T03:48:53.615Z,-7.19
2022-12-16T03:51:22.112Z,-7.10
2022-12-16T03:53:50.549Z,-7.12
2022-12-16T03:56:18.789Z,-7.09
2022-12-16T03:58:47.251Z,-7.06
2022-12-16T04:01:16.282Z,-7.09
2022-12-16T04:03:44.542Z,-7.10
2022-12-16T04:06:19.066Z,-7.05
2022-12-16T04:08:47.642Z,-7.12
2022-12-16T04:11:34.288Z,-7.05
2022-12-16T04:14:20.221Z,-7.04
2022-12-16T04:17:06.272Z,-7.00
2022-12-16T04:19:55.620Z,-6.97
2022-12-16T04:22:45.492Z,-6.99
2022-12-16T04:25:17.951Z,-7.08
2022-12-16T04:27:47.307Z,-6.99
2022-12-16T04:30:22.168Z,-6.84
2022-12-16T04:33:12.380Z,-6.96
2022-12-16T04:35:58.376Z,-6.80
2022-12-16T04:38:45.695Z,-6.97
2022-12-16T04:41:31.283Z,-7.08
2022-12-16T04:44:17.675Z,-7.24
2022-12-16T04:47:03.917Z,-7.10
2022-12-16T04:49:54.787Z,-6.96
2022-12-16T04:52:40.121Z,-6.91
2022-12-16T04:55:28.237Z,-7.00
2022-12-16T04:58:15.714Z,-6.90
2022-12-16T05:01:02.484Z,-6.73
2022-12-16T05:03:48.632Z,-6.84
2022-12-16T05:06:35.957Z,-6.95
2022-12-16T05:09:22.580Z,-6.79
2022-12-16T05:12:24.207Z,-6.73
2022-12-16T05:15:10.223Z,-6.83
2022-12-16T05:17:55.505Z,-6.92
2022-12-16T05:20:41.086Z,-7.10
2022-12-16T05:23:27.009Z,-7.28
2022-12-16T05:26:12.946Z,-7.07
2022-12-16T05:28:59.998Z,-7.00
2022-12-16T05:31:46.035Z,-6.93
2022-12-16T05:34:43.203Z,-6.88
2022-12-16T05:37:29.178Z,-6.89
2022-12-16T05:40:14.735Z,-6.90
2022-12-16T05:43:03.727Z,-6.84
2022-12-16T05:45:51.056Z,-6.87
2022-12-16T05:48:36.433Z,-7.01
2022-12-16T05:51:22.066Z,-6.88
2022-12-16T05:54:07.485Z,-6.80
2022-12-16T05:56:53.603Z,-6.77
2022-12-16T05:59:39.120Z,-6.83
2022-12-16T06:02:26.413Z,-6.88
2022-12-16T06:05:12.321Z,-6.89
2022-12-16T06:07:57.914Z,-6.89
2022-12-16T06:10:43.780Z,-6.87
2022-12-16T06:13:29.503Z,-6.72
2022-12-16T06:16:15.499Z,-6.64
2022-12-16T06:19:03.455Z,-6.61
2022-12-16T06:21:48.970Z,-6.72
2022-12-16T06:24:34.562Z,-6.57
2022-12-16T06:27:20.369Z,-6.70
2022-12-16T06:30:06.053Z,-6.72
2022-12-16T06:32:53.431Z,-6.69
2022-12-16T06:35:41.037Z,-6.67
2022-12-16T06:38:26.425Z,-6.65
2022-12-16T06:41:12.419Z,-6.62
2022-12-16T06:43:58.551Z,-6.51
2022-12-16T06:46:44.171Z,-6.42
2022-12-16T06:49:30.151Z,-6.40
2022-12-16T06:52:17.186Z,-6.36
2022-12-16T06:55:02.941Z,-6.39
2022-12-16T06:57:48.686Z,-6.46
2022-12-16T07:00:34.977Z,-6.30
2022-12-16T07:03:20.334Z,-6.34
2022-12-16T07:06:06.243Z,-6.41
2022-12-16T07:08:53.406Z,-6.55
2022-12-16T07:11:50.487Z,-6.51
2022-12-16T07:14:36.210Z,-6.47
2022-12-16T07:17:21.757Z,-6.39
2022-12-16T07:20:07.175Z,-6.31
2022-12-16T07:23:04.113Z,-6.31
2022-12-16T07:25:57.517Z,-6.32
2022-12-16T07:28:43.160Z,-6.21
2022-12-16T07:31:28.989Z,-6.18
2022-12-16T07:34:15.342Z,-6.25
2022-12-16T07:37:00.916Z,-6.36
2022-12-16T07:39:55.638Z,-6.33
2022-12-16T07:42:43.123Z,-6.32
2022-12-16T07:45:29.709Z,-6.36
2022-12-16T07:48:24.186Z,-6.51
2022-12-16T07:51:09.948Z,-6.94
2022-12-16T07:53:56.001Z,-6.84
2022-12-16T07:56:42.224Z,-6.94
2022-12-16T07:59:29.518Z,-7.14
2022-12-16T08:02:15.107Z,-6.78
2022-12-16T08:05:00.747Z,-6.47
2022-12-16T08:07:46.208Z,-6.43
2022-12-16T08:10:31.984Z,-6.26
2022-12-16T08:13:25.525Z,-6.14
2022-12-16T08:16:13.470Z,-6.22
2022-12-16T08:18:59.203Z,-6.39
2022-12-16T08:21:44.945Z,-6.47
2022-12-16T08:24:30.641Z,-6.42
2022-12-16T08:27:16.097Z,-6.43
2022-12-16T08:30:02.029Z,-6.23
2022-12-16T08:32:50.579Z,-6.16
2022-12-16T08:35:39.322Z,-6.22
2022-12-16T08:38:24.830Z,-6.13
2022-12-16T08:41:14.012Z,-6.01
2022-12-16T08:43:59.465Z,-6.03
2022-12-16T08:46:45.430Z,-5.91
2022-12-16T08:49:32.670Z,-5.79
2022-12-16T08:52:18.537Z,-5.77
2022-12-16T08:55:04.302Z,-5.67
2022-12-16T08:57:50.145Z,-5.69
2022-12-16T09:00:36.052Z,-5.75
2022-12-16T09:03:22.253Z,-5.71
2022-12-16T09:06:09.667Z,-5.74
2022-12-16T09:08:57.988Z,-5.66
2022-12-16T09:11:43.418Z,-5.42
2022-12-16T09:14:29.591Z,-5.29
2022-12-16T09:17:15.191Z,-5.23
2022-12-16T09:20:01.138Z,-5.25
2022-12-16T09:22:44.516Z,-5.23
2022-12-16T09:25:30.064Z,-5.11
2022-12-16T09:28:15.808Z,-4.97
2022-12-16T09:31:01.532Z,-4.86
2022-12-16T09:33:47.073Z,-4.73
2022-12-16T09:36:33.245Z,-4.59
2022-12-16T09:39:20.619Z,-4.66
2022-12-16T09:42:21.065Z,-4.35
2022-12-16T09:45:17.901Z,-4.37
2022-12-16T09:48:11.103Z,-4.33
2022-12-16T09:51:00.409Z,-4.17
2022-12-16T09:53:51.189Z,-3.99
2022-12-16T09:56:44.053Z,-3.87
2022-12-16T09:59:32.157Z,-3.72
2022-12-16T10:02:18.830Z,-3.80
2022-12-16T10:05:10.432Z,-3.80
2022-12-16T10:08:03.812Z,-3.92
2022-12-16T10:10:59.611Z,-3.83
2022-12-16T10:13:56.110Z,-3.67
2022-12-16T10:16:51.086Z,-3.59
2022-12-16T10:19:52.203Z,-3.70
2022-12-16T10:22:46.521Z,-3.53
2022-12-16T10:25:37.474Z,-3.62
2022-12-16T10:28:34.251Z,-3.55
2022-12-16T10:31:24.584Z,-3.56
2022-12-16T10:34:12.685Z,-3.53
2022-12-16T10:37:02.822Z,-3.50
2022-12-16T10:39:55.503Z,-3.48
2022-12-16T10:42:47.068Z,-3.49
2022-12-16T10:45:39.991Z,-3.47
2022-12-16T10:48:29.363Z,-3.36
2022-12-16T10:51:18.063Z,-3.28
2022-12-16T10:54:05.760Z,-3.25
2022-12-16T10:57:08.373Z,-3.19
2022-12-16T10:59:56.077Z,-3.18
2022-12-16T11:02:44.219Z,-3.04
2022-12-16T11:05:50.072Z,-3.01
2022-12-16T11:08:47.269Z,-2.93
2022-12-16T11:11:40.367Z,-3.06
2022-12-16T11:14:38.943Z,-2.76
2022-12-16T11:17:45.335Z,-2.76
2022-12-16T11:20:37.946Z,-2.86
2022-12-16T11:23:52.035Z,-2.89
2022-12-16T11:26:38.672Z,-2.68
2022-12-16T11:29:29.720Z,-2.67
2022-12-16T11:32:33.441Z,-2.63
2022-12-16T11:35:22.345Z,-2.60
2022-12-16T11:38:11.520Z,-2.65
2022-12-16T11:40:59.176Z,-2.60
2022-12-16T11:43:56.617Z,-2.47
2022-12-16T11:46:46.169Z,-2.49
2022-12-16T11:49:39.819Z,-2.43
2022-12-16T11:52:37.868Z,-2.42
2022-12-16T11:58:53.785Z,-2.52
2022-12-16T12:01:46.792Z,-2.52
2022-12-16T12:04:33.108Z,-2.42
2022-12-16T12:07:44.519Z,-2.37
2022-12-16T12:10:49.772Z,-2.60
2022-12-16T12:13:52.480Z,-2.52
2022-12-16T12:16:47.135Z,-2.59
2022-12-16T12:19:43.874Z,-2.65
2022-12-16T12:22:47.635Z,-2.64
2022-12-16T12:25:42.316Z,-2.60
2022-12-16T12:28:39.571Z,-2.47
2022-12-16T12:31:33.948Z,-2.39
2022-12-16T12:34:31.825Z,-2.34
2022-12-16T12:37:26.439Z,-2.43
2022-12-16T12:40:20.779Z,-2.73
2022-12-16T12:43:11.980Z,-2.46
2022-12-16T12:46:10.506Z,-2.44
2022-12-16T12:49:02.648Z,-2.32
2022-12-16T12:52:01.483Z,-2.23
2022-12-16T12:54:55.464Z,-2.21
2022-12-16T12:57:56.620Z,-2.27
2022-12-16T13:00:45.949Z,-2.39
2022-12-16T13:03:35.282Z,-2.45
2022-12-16T13:06:22.430Z,-2.41
2022-12-16T13:09:16.747Z,-2.51
2022-12-16T13:12:43.973Z,-2.55
2022-12-16T13:15:38.098Z,-2.49
2022-12-16T13:18:43.568Z,-2.56
2022-12-16T13:22:04.372Z,-2.57
2022-12-16T13:25:04.232Z,-2.60
2022-12-16T13:28:08.388Z,-2.69
2022-12-16T13:30:54.507Z,-2.65
2022-12-16T13:33:48.003Z,-2.71
2022-12-16T13:36:35.869Z,-2.75
2022-12-16T13:39:41.739Z,-2.78
2022-12-16T13:43:06.439Z,-2.83
2022-12-16T13:45:55.488Z,-2.75
2022-12-16T13:48:53.746Z,-2.79
2022-12-16T13:52:24.530Z,-2.81
2022-12-16T13:55:34.892Z,-2.96
2022-12-16T13:58:35.855Z,-2.82
2022-12-16T14:01:29.263Z,-2.76
2022-12-16T14:04:17.425Z,-2.71
2022-12-16T14:07:03.952Z,-2.71
2022-12-16T14:09:53.968Z,-2.71
2022-12-16T14:13:02.575Z,-2.81
2022-12-16T14:15:58.874Z,-2.74
2022-12-16T14:18:56.771Z,-2.71
2022-12-16T14:21:50.495Z,-2.79
2022-12-16T14:24:51.126Z,-2.67
2022-12-16T14:27:39.211Z,-2.64
2022-12-16T14:30:37.429Z,-2.69
2022-12-16T14:33:44.160Z,-2.66
2022-12-16T14:36:39.181Z,-2.57
2022-12-16T14:39:29.712Z,-2.53
2022-12-16T14:42:15.702Z,-2.46
2022-12-16T14:45:04.534Z,-2.55
2022-12-16T14:47:51.315Z,-2.53
2022-12-16T14:50:45.145Z,-2.63
2022-12-16T14:53:37.128Z,-2.54
2022-12-16T14:56:34.924Z,-2.55
2022-12-16T14:59:28.523Z,-2.50
2022-12-16T15:02:17.685Z,-2.46
2022-12-16T15:05:04.157Z,-2.44
2022-12-16T15:07:56.181Z,-2.51
2022-12-16T15:10:45.127Z,-2.53
2022-12-16T15:13:36.648Z,-2.59
2022-12-16T15:16:24.942Z,-2.67
2022-12-16T15:19:17.859Z,-2.80
2022-12-16T15:22:03.811Z,-2.83
2022-12-16T15:25:05.160Z,-2.90
2022-12-16T15:27:54.426Z,-2.98
2022-12-16T15:30:56.861Z,-3.08
2022-12-16T15:33:44.482Z,-3.05
2022-12-16T15:36:43.908Z,-3.12
2022-12-16T15:39:35.954Z,-3.25
2022-12-16T15:42:23.456Z,-3.16
2022-12-16T15:45:10.485Z,-3.16
2022-12-16T15:47:57.192Z,-3.16
2022-12-16T15:50:45.794Z,-3.22
2022-12-16T15:53:49.727Z,-3.69
2022-12-16T15:56:40.087Z,-3.27
2022-12-16T15:59:44.151Z,-3.43
2022-12-16T16:02:37.677Z,-3.20
2022-12-16T16:05:30.195Z,-3.25
2022-12-16T16:08:16.023Z,-3.28
2022-12-16T16:11:02.574Z,-3.30
2022-12-16T16:13:49.717Z,-3.20
2022-12-16T16:16:37.307Z,-3.18
2022-12-16T16:19:27.633Z,-3.19
2022-12-16T16:22:13.496Z,-3.19
2022-12-16T16:24:59.706Z,-3.19
2022-12-16T16:27:46.474Z,-3.16
2022-12-16T16:30:32.492Z,-3.14
2022-12-16T16:33:19.639Z,-3.13
2022-12-16T16:36:05.618Z,-3.09
2022-12-16T16:38:51.110Z,-3.07
2022-12-16T16:41:39.181Z,-3.00
2022-12-16T16:44:24.573Z,-3.00
2022-12-16T16:47:10.529Z,-3.02
2022-12-16T16:50:03.164Z,-3.09
2022-12-16T16:52:50.650Z,-3.06
2022-12-16T16:55:38.873Z,-3.09
2022-12-16T16:58:28.071Z,-3.11
2022-12-16T17:01:28.575Z,-3.12
2022-12-16T17:04:14.996Z,-3.10
2022-12-16T17:07:01.874Z,-3.11
2022-12-16T17:09:47.597Z,-3.09
2022-12-16T17:12:38.760Z,-3.12
2022-12-16T17:15:34.191Z,-3.10
2022-12-16T17:18:20.686Z,-3.05
2022-12-16T17:21:08.646Z,-3.08
2022-12-16T17:23:55.753Z,-3.10
2022-12-16T17:26:41.939Z,-3.12
2022-12-16T17:29:37.011Z,-3.22
2022-12-16T17:32:22.944Z,-3.10
2022-12-16T17:35:08.344Z,-3.08
2022-12-16T17:37:54.343Z,-2.97
2022-12-16T17:40:41.534Z,-2.98
2022-12-16T17:43:27.873Z,-3.04
2022-12-16T17:46:18.209Z,-2.96
2022-12-16T17:49:04.366Z,-2.98
2022-12-16T17:51:50.058Z,-2.93
2022-12-16T17:54:36.954Z,-2.92
2022-12-16T17:57:24.024Z,-2.84
2022-12-16T18:00:09.879Z,-2.88
2022-12-16T18:02:56.058Z,-2.82
2022-12-16T18:05:44.709Z,-2.81
2022-12-16T18:08:30.784Z,-2.77
2022-12-16T18:11:17.315Z,-2.79
2022-12-16T18:14:05.039Z,-2.78
2022-12-16T18:16:51.052Z,-2.78
2022-12-16T18:19:36.759Z,-2.74
2022-12-16T18:22:31.392Z,-2.70
2022-12-16T18:25:16.941Z,-2.78
2022-12-16T18:28:02.703Z,-2.68
2022-12-16T18:31:04.950Z,-2.65
2022-12-16T18:33:51.559Z,-2.62
2022-12-16T18:36:37.427Z,-2.55
2022-12-16T18:39:24.246Z,-2.52
2022-12-16T18:42:10.463Z,-2.53
2022-12-16T18:45:07.673Z,-2.55
2022-12-16T18:47:54.650Z,-2.50
2022-12-16T18:50:40.248Z,-2.47
2022-12-16T18:53:26.452Z,-2.46
2022-12-16T18:56:19.357Z,-2.63
2022-12-16T18:59:04.944Z,-2.43
2022-12-16T19:01:50.678Z,-2.44
2022-12-16T19:04:38.255Z,-2.47
2022-12-16T19:07:23.950Z,-2.48
2022-12-16T19:10:10.034Z,-2.40
2022-12-16T19:12:56.237Z,-2.36
2022-12-16T19:15:41.898Z,-2.29
2022-12-16T19:18:27.813Z,-2.23
2022-12-16T19:21:15.877Z,-2.16
2022-12-16T19:24:02.047Z,-2.09
2022-12-16T19:26:47.837Z,-2.06
2022-12-16T19:29:33.631Z,-2.08
2022-12-16T19:32:19.269Z,-2.09
2022-12-16T19:35:06.212Z,-1.91
2022-12-16T19:37:53.754Z,-1.86
2022-12-16T19:40:39.768Z,-1.84
2022-12-16T19:43:25.947Z,-1.81
2022-12-16T19:46:12.180Z,-1.93
2022-12-16T19:48:58.202Z,-1.79
2022-12-16T19:51:44.667Z,-1.70
2022-12-16T19:54:31.622Z,-1.66
2022-12-16T19:57:17.154Z,-1.56
2022-12-16T20:00:12.695Z,-1.49
2022-12-16T20:02:58.489Z,-1.48
2022-12-16T20:05:45.007Z,-1.46
2022-12-16T20:08:32.070Z,-1.44
2022-12-16T20:11:23.777Z,-1.50
2022-12-16T20:14:11.839Z,-1.45
2022-12-16T20:16:58.095Z,-1.47
2022-12-16T20:19:44.155Z,-1.53
2022-12-16T20:22:30.149Z,-1.42
2022-12-16T20:25:16.978Z,-1.38
2022-12-16T20:28:04.215Z,-1.32
2022-12-16T20:30:50.357Z,-1.34
2022-12-16T20:33:35.897Z,-1.25
2022-12-16T20:36:23.683Z,-1.31
2022-12-16T20:39:10.062Z,-1.17
2022-12-16T20:42:00.164Z,-1.18
2022-12-16T20:44:52.717Z,-1.09
2022-12-16T20:47:43.976Z,-1.14
2022-12-16T20:50:30.442Z,-1.08
2022-12-16T20:53:16.843Z,-1.04
2022-12-16T20:56:08.771Z,-1.16
2022-12-16T20:58:56.196Z,-1.14
2022-12-16T21:02:21.810Z,-1.10
2022-12-16T21:05:05.943Z,-1.08
2022-12-16T21:07:51.874Z,-1.07
2022-12-16T21:10:43.058Z,-1.08
2022-12-16T21:13:30.743Z,-1.07
2022-12-16T21:16:17.401Z,-1.12
2022-12-16T21:19:04.192Z,-1.08
2022-12-16T21:21:50.123Z,-1.09
2022-12-16T21:24:35.607Z,-1.12
2022-12-16T21:27:21.491Z,-1.16
2022-12-16T21:30:07.501Z,-1.19
2022-12-16T21:32:53.374Z,-1.17
2022-12-16T21:39:01.150Z,-1.21
2022-12-16T21:41:46.813Z,-1.22
2022-12-16T21:44:32.244Z,-1.31
2022-12-16T21:47:17.966Z,-1.31
2022-12-16T21:50:03.554Z,-1.32
2022-12-16T21:52:50.883Z,-1.29
2022-12-16T21:55:39.162Z,-1.20
2022-12-16T21:58:29.224Z,-1.32
2022-12-16T22:01:15.515Z,-1.35
2022-12-16T22:04:01.312Z,-1.38
2022-12-16T22:06:49.117Z,-1.38
2022-12-16T22:09:36.545Z,-1.39
2022-12-16T22:12:22.920Z,-1.40
2022-12-16T22:15:08.927Z,-1.42
2022-12-16T22:17:58.643Z,-1.39
2022-12-16T22:20:44.944Z,-1.42
2022-12-16T22:23:30.527Z,-1.37
2022-12-16T22:26:24.217Z,-1.33
2022-12-16T22:29:11.308Z,-1.31
2022-12-16T22:31:57.049Z,-1.29
2022-12-16T22:34:42.700Z,-1.26
2022-12-16T22:37:24.673Z,-1.28
2022-12-16T22:40:10.385Z,-1.28
2022-12-16T22:42:57.512Z,-1.33
2022-12-16T22:45:58.023Z,-1.29
2022-12-16T22:48:44.296Z,-1.27
2022-12-16T22:51:30.308Z,-1.23
2022-12-16T22:54:16.546Z,-1.25
2022-12-16T22:56:58.708Z,-1.22
2022-12-16T22:59:46.119Z,-1.20
2022-12-16T23:02:31.731Z,-1.16
2022-12-16T23:05:19.165Z,-1.13
2022-12-16T23:08:08.553Z,-1.20
2022-12-16T23:10:55.504Z,-1.34
2022-12-16T23:13:52.532Z,-1.26
2022-12-16T23:16:40.743Z,-1.27
2022-12-16T23:19:26.415Z,-1.28
2022-12-16T23:22:11.826Z,-1.31
2022-12-16T23:24:57.509Z,-1.23
2022-12-16T23:27:42.798Z,-1.27
2022-12-16T23:30:29.856Z,-1.28
2022-12-16T23:33:18.058Z,-1.27
2022-12-16T23:36:03.685Z,-1.29
2022-12-16T23:38:49.539Z,-1.27
2022-12-16T23:41:31.731Z,-1.22
2022-12-16T23:44:17.947Z,-1.14
2022-12-16T23:47:03.720Z,-1.14
2022-12-16T23:49:51.995Z,-1.27
2022-12-16T23:52:37.470Z,-1.38
2022-12-16T23:55:29.114Z,-1.44
2022-12-16T23:58:17.911Z,-1.52
